sensor_id;sensor_type;location;lat;lon;timestamp;P1;durP1;ratioP1;P2;durP2;ratioP2
11414;SDS011;5763;42.714;23.244;2023-03-03T00:00:42;3.65;;;3.00;;
11414;SDS011;5763;42.714;23.244;2023-03-03T00:03:09;2.70;;;2.50;;
11414;SDS011;5763;42.714;23.244;2023-03-03T00:05:39;2.75;;;2.50;;
11414;SDS011;5763;42.714;23.244;2023-03-03T00:08:08;3.33;;;2.53;;
11414;SDS011;5763;42.714;23.244;2023-03-03T00:10:37;2.97;;;2.67;;
11414;SDS011;5763;42.714;23.244;2023-03-03T00:13:05;3.65;;;2.92;;
11414;SDS011;5763;42.714;23.244;2023-03-03T00:15:38;3.03;;;2.42;;
11414;SDS011;5763;42.714;23.244;2023-03-03T00:18:09;4.03;;;2.97;;
11414;SDS011;5763;42.714;23.244;2023-03-03T00:20:46;3.25;;;2.58;;
11414;SDS011;5763;42.714;23.244;2023-03-03T00:23:30;2.70;;;2.22;;
11414;SDS011;5763;42.714;23.244;2023-03-03T00:26:04;2.88;;;2.58;;
11414;SDS011;5763;42.714;23.244;2023-03-03T00:28:43;3.63;;;2.65;;
11414;SDS011;5763;42.714;23.244;2023-03-03T00:31:11;3.97;;;2.55;;
11414;SDS011;5763;42.714;23.244;2023-03-03T00:33:44;3.28;;;2.88;;
11414;SDS011;5763;42.714;23.244;2023-03-03T00:36:26;3.28;;;2.85;;
11414;SDS011;5763;42.714;23.244;2023-03-03T00:38:57;3.53;;;2.53;;
11414;SDS011;5763;42.714;23.244;2023-03-03T00:41:37;4.00;;;2.70;;
11414;SDS011;5763;42.714;23.244;2023-03-03T00:44:16;3.15;;;2.85;;
11414;SDS011;5763;42.714;23.244;2023-03-03T00:49:53;3.50;;;3.20;;
11414;SDS011;5763;42.714;23.244;2023-03-03T00:52:20;3.63;;;3.00;;
11414;SDS011;5763;42.714;23.244;2023-03-03T00:54:52;3.40;;;3.10;;
11414;SDS011;5763;42.714;23.244;2023-03-03T00:57:20;3.22;;;2.92;;
11414;SDS011;5763;42.714;23.244;2023-03-03T00:59:47;3.33;;;3.03;;
11414;SDS011;5763;42.714;23.244;2023-03-03T01:02:14;4.00;;;3.40;;
11414;SDS011;5763;42.714;23.244;2023-03-03T01:04:41;3.72;;;3.30;;
11414;SDS011;5763;42.714;23.244;2023-03-03T01:07:12;3.42;;;3.00;;
11414;SDS011;5763;42.714;23.244;2023-03-03T01:09:38;3.45;;;3.15;;
11414;SDS011;5763;42.714;23.244;2023-03-03T01:12:05;3.50;;;3.20;;
11414;SDS011;5763;42.714;23.244;2023-03-03T01:14:34;3.80;;;3.35;;
11414;SDS011;5763;42.714;23.244;2023-03-03T01:17:01;3.42;;;3.08;;
11414;SDS011;5763;42.714;23.244;2023-03-03T01:19:28;3.58;;;2.92;;
11414;SDS011;5763;42.714;23.244;2023-03-03T01:21:54;3.88;;;3.47;;
11414;SDS011;5763;42.714;23.244;2023-03-03T01:24:22;4.78;;;3.50;;
11414;SDS011;5763;42.714;23.244;2023-03-03T01:26:48;4.78;;;3.75;;
11414;SDS011;5763;42.714;23.244;2023-03-03T01:29:15;5.25;;;3.63;;
11414;SDS011;5763;42.714;23.244;2023-03-03T01:31:43;4.43;;;3.33;;
11414;SDS011;5763;42.714;23.244;2023-03-03T01:34:10;4.25;;;3.80;;
11414;SDS011;5763;42.714;23.244;2023-03-03T01:36:37;4.18;;;3.75;;
11414;SDS011;5763;42.714;23.244;2023-03-03T01:39:04;4.43;;;4.03;;
11414;SDS011;5763;42.714;23.244;2023-03-03T01:41:30;4.32;;;3.75;;
11414;SDS011;5763;42.714;23.244;2023-03-03T01:43:58;3.72;;;3.40;;
11414;SDS011;5763;42.714;23.244;2023-03-03T01:49:15;4.10;;;3.70;;
11414;SDS011;5763;42.714;23.244;2023-03-03T01:51:46;4.45;;;3.85;;
11414;SDS011;5763;42.714;23.244;2023-03-03T01:54:17;4.32;;;3.53;;
11414;SDS011;5763;42.714;23.244;2023-03-03T01:56:49;5.45;;;3.90;;
11414;SDS011;5763;42.714;23.244;2023-03-03T01:59:18;4.53;;;3.97;;
11414;SDS011;5763;42.714;23.244;2023-03-03T02:01:50;3.97;;;3.55;;
11414;SDS011;5763;42.714;23.244;2023-03-03T02:04:17;5.80;;;3.80;;
11414;SDS011;5763;42.714;23.244;2023-03-03T02:06:46;4.13;;;3.35;;
11414;SDS011;5763;42.714;23.244;2023-03-03T02:09:18;4.13;;;3.60;;
11414;SDS011;5763;42.714;23.244;2023-03-03T02:11:52;4.65;;;3.83;;
11414;SDS011;5763;42.714;23.244;2023-03-03T02:14:23;4.60;;;4.10;;
11414;SDS011;5763;42.714;23.244;2023-03-03T02:16:51;5.30;;;3.40;;
11414;SDS011;5763;42.714;23.244;2023-03-03T02:19:19;5.13;;;4.20;;
11414;SDS011;5763;42.714;23.244;2023-03-03T02:21:53;4.20;;;3.72;;
11414;SDS011;5763;42.714;23.244;2023-03-03T02:24:23;4.22;;;3.47;;
11414;SDS011;5763;42.714;23.244;2023-03-03T02:26:54;4.32;;;3.75;;
11414;SDS011;5763;42.714;23.244;2023-03-03T02:29:21;4.82;;;4.20;;
11414;SDS011;5763;42.714;23.244;2023-03-03T02:31:48;4.43;;;3.67;;
11414;SDS011;5763;42.714;23.244;2023-03-03T02:34:15;3.92;;;3.53;;
11414;SDS011;5763;42.714;23.244;2023-03-03T02:36:41;6.18;;;3.60;;
11414;SDS011;5763;42.714;23.244;2023-03-03T02:39:09;4.30;;;3.90;;
11414;SDS011;5763;42.714;23.244;2023-03-03T02:41:40;4.72;;;3.33;;
11414;SDS011;5763;42.714;23.244;2023-03-03T02:44:13;3.83;;;3.25;;
11414;SDS011;5763;42.714;23.244;2023-03-03T02:46:42;4.00;;;2.80;;
11414;SDS011;5763;42.714;23.244;2023-03-03T02:49:11;3.72;;;3.20;;
11414;SDS011;5763;42.714;23.244;2023-03-03T02:51:39;3.20;;;2.90;;
11414;SDS011;5763;42.714;23.244;2023-03-03T02:54:07;3.05;;;2.75;;
11414;SDS011;5763;42.714;23.244;2023-03-03T02:56:35;3.63;;;2.75;;
11414;SDS011;5763;42.714;23.244;2023-03-03T02:59:02;3.05;;;2.75;;
11414;SDS011;5763;42.714;23.244;2023-03-03T03:01:31;3.47;;;3.17;;
11414;SDS011;5763;42.714;23.244;2023-03-03T03:04:01;3.47;;;2.72;;
11414;SDS011;5763;42.714;23.244;2023-03-03T03:06:30;3.05;;;2.83;;
11414;SDS011;5763;42.714;23.244;2023-03-03T03:08:57;3.08;;;2.78;;
11414;SDS011;5763;42.714;23.244;2023-03-03T03:11:24;3.60;;;3.25;;
11414;SDS011;5763;42.714;23.244;2023-03-03T03:13:52;3.40;;;3.10;;
11414;SDS011;5763;42.714;23.244;2023-03-03T03:16:18;3.75;;;3.35;;
11414;SDS011;5763;42.714;23.244;2023-03-03T03:18:47;3.45;;;3.00;;
11414;SDS011;5763;42.714;23.244;2023-03-03T03:21:14;4.22;;;3.47;;
11414;SDS011;5763;42.714;23.244;2023-03-03T03:23:41;4.25;;;3.30;;
11414;SDS011;5763;42.714;23.244;2023-03-03T03:26:08;3.75;;;3.33;;
11414;SDS011;5763;42.714;23.244;2023-03-03T03:28:35;4.30;;;3.90;;
11414;SDS011;5763;42.714;23.244;2023-03-03T03:31:02;4.15;;;3.70;;
11414;SDS011;5763;42.714;23.244;2023-03-03T03:33:30;3.40;;;3.10;;
11414;SDS011;5763;42.714;23.244;2023-03-03T03:35:58;4.30;;;3.72;;
11414;SDS011;5763;42.714;23.244;2023-03-03T03:38:25;5.50;;;4.35;;
11414;SDS011;5763;42.714;23.244;2023-03-03T03:40:54;4.78;;;3.80;;
11414;SDS011;5763;42.714;23.244;2023-03-03T03:43:21;5.45;;;3.92;;
11414;SDS011;5763;42.714;23.244;2023-03-03T03:45:48;5.07;;;4.07;;
11414;SDS011;5763;42.714;23.244;2023-03-03T03:48:15;4.28;;;3.75;;
11414;SDS011;5763;42.714;23.244;2023-03-03T03:50:43;5.60;;;4.30;;
11414;SDS011;5763;42.714;23.244;2023-03-03T03:53:12;5.75;;;4.28;;
11414;SDS011;5763;42.714;23.244;2023-03-03T03:55:38;5.55;;;4.30;;
11414;SDS011;5763;42.714;23.244;2023-03-03T03:58:05;5.10;;;4.60;;
11414;SDS011;5763;42.714;23.244;2023-03-03T04:00:32;5.18;;;4.20;;
11414;SDS011;5763;42.714;23.244;2023-03-03T04:02:59;5.70;;;4.10;;
11414;SDS011;5763;42.714;23.244;2023-03-03T04:05:26;6.28;;;4.88;;
11414;SDS011;5763;42.714;23.244;2023-03-03T04:07:52;5.55;;;4.75;;
11414;SDS011;5763;42.714;23.244;2023-03-03T04:10:20;6.32;;;4.47;;
11414;SDS011;5763;42.714;23.244;2023-03-03T04:12:47;6.05;;;4.90;;
11414;SDS011;5763;42.714;23.244;2023-03-03T04:15:14;5.28;;;4.60;;
11414;SDS011;5763;42.714;23.244;2023-03-03T04:17:40;6.22;;;4.68;;
11414;SDS011;5763;42.714;23.244;2023-03-03T04:20:08;5.47;;;4.70;;
11414;SDS011;5763;42.714;23.244;2023-03-03T04:22:38;6.80;;;5.13;;
11414;SDS011;5763;42.714;23.244;2023-03-03T04:25:05;6.95;;;5.45;;
11414;SDS011;5763;42.714;23.244;2023-03-03T04:27:34;7.10;;;6.18;;
11414;SDS011;5763;42.714;23.244;2023-03-03T04:30:02;6.93;;;5.20;;
11414;SDS011;5763;42.714;23.244;2023-03-03T04:32:31;6.70;;;5.43;;
11414;SDS011;5763;42.714;23.244;2023-03-03T04:34:59;5.78;;;5.18;;
11414;SDS011;5763;42.714;23.244;2023-03-03T04:37:26;6.40;;;5.00;;
11414;SDS011;5763;42.714;23.244;2023-03-03T04:39:52;6.65;;;5.50;;
11414;SDS011;5763;42.714;23.244;2023-03-03T04:42:19;7.05;;;5.18;;
11414;SDS011;5763;42.714;23.244;2023-03-03T04:44:47;6.72;;;5.30;;
11414;SDS011;5763;42.714;23.244;2023-03-03T04:47:14;6.13;;;5.25;;
11414;SDS011;5763;42.714;23.244;2023-03-03T04:49:40;6.55;;;5.05;;
11414;SDS011;5763;42.714;23.244;2023-03-03T04:52:07;6.55;;;5.25;;
11414;SDS011;5763;42.714;23.244;2023-03-03T04:54:34;7.45;;;5.30;;
11414;SDS011;5763;42.714;23.244;2023-03-03T04:57:01;6.80;;;5.68;;
11414;SDS011;5763;42.714;23.244;2023-03-03T04:59:28;7.90;;;5.70;;
11414;SDS011;5763;42.714;23.244;2023-03-03T05:01:56;6.85;;;5.85;;
11414;SDS011;5763;42.714;23.244;2023-03-03T05:04:23;6.75;;;6.05;;
11414;SDS011;5763;42.714;23.244;2023-03-03T05:06:49;7.68;;;5.82;;
11414;SDS011;5763;42.714;23.244;2023-03-03T05:09:16;6.53;;;5.15;;
11414;SDS011;5763;42.714;23.244;2023-03-03T05:11:43;6.53;;;5.45;;
11414;SDS011;5763;42.714;23.244;2023-03-03T05:14:10;8.00;;;5.50;;
11414;SDS011;5763;42.714;23.244;2023-03-03T05:16:37;8.02;;;6.10;;
11414;SDS011;5763;42.714;23.244;2023-03-03T05:19:05;6.50;;;5.75;;
11414;SDS011;5763;42.714;23.244;2023-03-03T05:21:31;7.00;;;5.07;;
11414;SDS011;5763;42.714;23.244;2023-03-03T05:23:58;7.90;;;5.55;;
11414;SDS011;5763;42.714;23.244;2023-03-03T05:26:25;6.32;;;5.43;;
11414;SDS011;5763;42.714;23.244;2023-03-03T05:28:52;6.75;;;6.05;;
11414;SDS011;5763;42.714;23.244;2023-03-03T05:31:18;9.45;;;6.22;;
11414;SDS011;5763;42.714;23.244;2023-03-03T05:33:45;7.50;;;5.97;;
11414;SDS011;5763;42.714;23.244;2023-03-03T05:36:13;7.93;;;6.13;;
11414;SDS011;5763;42.714;23.244;2023-03-03T05:38:40;7.25;;;5.65;;
11414;SDS011;5763;42.714;23.244;2023-03-03T05:41:07;7.78;;;6.32;;
11414;SDS011;5763;42.714;23.244;2023-03-03T05:43:34;9.15;;;6.97;;
11414;SDS011;5763;42.714;23.244;2023-03-03T05:46:00;7.85;;;6.38;;
11414;SDS011;5763;42.714;23.244;2023-03-03T05:48:27;6.88;;;6.13;;
11414;SDS011;5763;42.714;23.244;2023-03-03T05:50:56;8.27;;;6.68;;
11414;SDS011;5763;42.714;23.244;2023-03-03T05:53:25;7.95;;;6.75;;
11414;SDS011;5763;42.714;23.244;2023-03-03T05:55:53;8.77;;;6.90;;
11414;SDS011;5763;42.714;23.244;2023-03-03T05:58:19;9.52;;;7.13;;
11414;SDS011;5763;42.714;23.244;2023-03-03T06:00:46;9.18;;;7.00;;
11414;SDS011;5763;42.714;23.244;2023-03-03T06:03:13;10.07;;;7.45;;
11414;SDS011;5763;42.714;23.244;2023-03-03T06:05:41;9.23;;;7.32;;
11414;SDS011;5763;42.714;23.244;2023-03-03T06:08:07;9.13;;;7.10;;
11414;SDS011;5763;42.714;23.244;2023-03-03T06:10:35;9.82;;;7.30;;
11414;SDS011;5763;42.714;23.244;2023-03-03T06:13:02;10.38;;;6.90;;
11414;SDS011;5763;42.714;23.244;2023-03-03T06:15:29;9.93;;;7.18;;
11414;SDS011;5763;42.714;23.244;2023-03-03T06:17:56;8.98;;;6.82;;
11414;SDS011;5763;42.714;23.244;2023-03-03T06:20:22;8.88;;;7.32;;
11414;SDS011;5763;42.714;23.244;2023-03-03T06:22:49;8.02;;;6.88;;
11414;SDS011;5763;42.714;23.244;2023-03-03T06:25:16;8.68;;;6.93;;
11414;SDS011;5763;42.714;23.244;2023-03-03T06:27:44;8.23;;;6.85;;
11414;SDS011;5763;42.714;23.244;2023-03-03T06:30:12;11.52;;;7.22;;
11414;SDS011;5763;42.714;23.244;2023-03-03T06:32:39;8.48;;;7.03;;
11414;SDS011;5763;42.714;23.244;2023-03-03T06:35:06;10.80;;;7.20;;
11414;SDS011;5763;42.714;23.244;2023-03-03T06:37:33;9.27;;;6.93;;
11414;SDS011;5763;42.714;23.244;2023-03-03T06:40:00;9.77;;;6.93;;
11414;SDS011;5763;42.714;23.244;2023-03-03T06:42:27;9.27;;;6.88;;
11414;SDS011;5763;42.714;23.244;2023-03-03T06:44:55;8.85;;;6.85;;
11414;SDS011;5763;42.714;23.244;2023-03-03T06:47:22;8.55;;;6.40;;
11414;SDS011;5763;42.714;23.244;2023-03-03T06:49:48;6.95;;;6.10;;
11414;SDS011;5763;42.714;23.244;2023-03-03T06:52:16;7.78;;;6.00;;
11414;SDS011;5763;42.714;23.244;2023-03-03T06:54:48;8.15;;;6.05;;
11414;SDS011;5763;42.714;23.244;2023-03-03T06:57:16;7.18;;;5.50;;
11414;SDS011;5763;42.714;23.244;2023-03-03T06:59:48;7.70;;;5.72;;
11414;SDS011;5763;42.714;23.244;2023-03-03T07:02:19;7.88;;;5.35;;
11414;SDS011;5763;42.714;23.244;2023-03-03T07:04:47;6.65;;;5.95;;
11414;SDS011;5763;42.714;23.244;2023-03-03T07:07:16;7.03;;;5.82;;
11414;SDS011;5763;42.714;23.244;2023-03-03T07:09:45;8.50;;;6.30;;
11414;SDS011;5763;42.714;23.244;2023-03-03T07:12:14;6.97;;;5.90;;
11414;SDS011;5763;42.714;23.244;2023-03-03T07:14:46;7.90;;;6.10;;
11414;SDS011;5763;42.714;23.244;2023-03-03T07:17:16;8.52;;;6.20;;
11414;SDS011;5763;42.714;23.244;2023-03-03T07:19:46;9.00;;;7.05;;
11414;SDS011;5763;42.714;23.244;2023-03-03T07:22:15;7.65;;;6.40;;
11414;SDS011;5763;42.714;23.244;2023-03-03T07:24:44;9.55;;;7.22;;
11414;SDS011;5763;42.714;23.244;2023-03-03T07:27:13;9.55;;;7.50;;
11414;SDS011;5763;42.714;23.244;2023-03-03T07:29:45;8.18;;;7.32;;
11414;SDS011;5763;42.714;23.244;2023-03-03T07:32:18;9.82;;;8.15;;
11414;SDS011;5763;42.714;23.244;2023-03-03T07:35:04;10.50;;;7.55;;
11414;SDS011;5763;42.714;23.244;2023-03-03T07:37:45;8.52;;;7.50;;
11414;SDS011;5763;42.714;23.244;2023-03-03T07:40:24;10.13;;;8.07;;
11414;SDS011;5763;42.714;23.244;2023-03-03T07:42:58;9.93;;;7.20;;
11414;SDS011;5763;42.714;23.244;2023-03-03T07:45:26;9.20;;;7.68;;
11414;SDS011;5763;42.714;23.244;2023-03-03T07:47:55;10.65;;;7.82;;
11414;SDS011;5763;42.714;23.244;2023-03-03T07:50:34;9.68;;;7.40;;
11414;SDS011;5763;42.714;23.244;2023-03-03T07:53:01;10.68;;;8.48;;
11414;SDS011;5763;42.714;23.244;2023-03-03T07:55:32;8.82;;;7.65;;
11414;SDS011;5763;42.714;23.244;2023-03-03T07:58:11;8.05;;;7.25;;
11414;SDS011;5763;42.714;23.244;2023-03-03T08:03:52;10.93;;;7.88;;
11414;SDS011;5763;42.714;23.244;2023-03-03T08:06:38;9.98;;;7.65;;
11414;SDS011;5763;42.714;23.244;2023-03-03T08:09:23;10.93;;;8.02;;
11414;SDS011;5763;42.714;23.244;2023-03-03T08:11:56;9.60;;;7.07;;
11414;SDS011;5763;42.714;23.244;2023-03-03T08:14:28;9.57;;;6.88;;
11414;SDS011;5763;42.714;23.244;2023-03-03T08:16:56;9.13;;;7.47;;
11414;SDS011;5763;42.714;23.244;2023-03-03T08:19:23;7.97;;;7.18;;
11414;SDS011;5763;42.714;23.244;2023-03-03T08:21:53;7.93;;;7.10;;
11414;SDS011;5763;42.714;23.244;2023-03-03T08:24:26;9.68;;;7.43;;
11414;SDS011;5763;42.714;23.244;2023-03-03T08:26:52;8.77;;;7.43;;
11414;SDS011;5763;42.714;23.244;2023-03-03T08:29:20;9.30;;;8.07;;
11414;SDS011;5763;42.714;23.244;2023-03-03T08:31:47;8.85;;;7.82;;
11414;SDS011;5763;42.714;23.244;2023-03-03T08:34:14;10.27;;;7.72;;
11414;SDS011;5763;42.714;23.244;2023-03-03T08:36:40;9.68;;;8.15;;
11414;SDS011;5763;42.714;23.244;2023-03-03T08:39:09;9.50;;;8.27;;
11414;SDS011;5763;42.714;23.244;2023-03-03T08:41:35;11.60;;;9.00;;
11414;SDS011;5763;42.714;23.244;2023-03-03T08:44:03;9.85;;;8.57;;
11414;SDS011;5763;42.714;23.244;2023-03-03T08:46:30;11.85;;;8.73;;
11414;SDS011;5763;42.714;23.244;2023-03-03T08:48:56;10.80;;;8.38;;
11414;SDS011;5763;42.714;23.244;2023-03-03T08:51:23;10.32;;;8.90;;
11414;SDS011;5763;42.714;23.244;2023-03-03T08:53:50;11.80;;;9.00;;
11414;SDS011;5763;42.714;23.244;2023-03-03T08:56:18;10.18;;;8.25;;
11414;SDS011;5763;42.714;23.244;2023-03-03T08:58:45;10.75;;;9.10;;
11414;SDS011;5763;42.714;23.244;2023-03-03T09:01:13;10.18;;;8.63;;
11414;SDS011;5763;42.714;23.244;2023-03-03T09:03:40;10.25;;;8.60;;
11414;SDS011;5763;42.714;23.244;2023-03-03T09:06:07;10.82;;;8.88;;
11414;SDS011;5763;42.714;23.244;2023-03-03T09:08:35;12.07;;;9.07;;
11414;SDS011;5763;42.714;23.244;2023-03-03T09:11:02;9.85;;;8.05;;
11414;SDS011;5763;42.714;23.244;2023-03-03T09:13:30;10.30;;;8.40;;
11414;SDS011;5763;42.714;23.244;2023-03-03T09:15:57;11.63;;;8.68;;
11414;SDS011;5763;42.714;23.244;2023-03-03T09:18:24;9.77;;;8.07;;
11414;SDS011;5763;42.714;23.244;2023-03-03T09:20:57;9.80;;;8.40;;
11414;SDS011;5763;42.714;23.244;2023-03-03T09:26:19;10.98;;;7.85;;
11414;SDS011;5763;42.714;23.244;2023-03-03T09:28:52;12.07;;;8.20;;
11414;SDS011;5763;42.714;23.244;2023-03-03T09:31:21;9.75;;;8.43;;
11414;SDS011;5763;42.714;23.244;2023-03-03T09:33:51;10.30;;;8.93;;
11414;SDS011;5763;42.714;23.244;2023-03-03T09:36:22;11.18;;;9.13;;
11414;SDS011;5763;42.714;23.244;2023-03-03T09:38:51;13.80;;;9.27;;
11414;SDS011;5763;42.714;23.244;2023-03-03T09:41:33;11.85;;;9.15;;
11414;SDS011;5763;42.714;23.244;2023-03-03T09:44:24;10.88;;;8.73;;
11414;SDS011;5763;42.714;23.244;2023-03-03T09:47:18;10.05;;;8.18;;
11414;SDS011;5763;42.714;23.244;2023-03-03T09:49:57;11.80;;;9.35;;
11414;SDS011;5763;42.714;23.244;2023-03-03T09:52:32;11.93;;;9.20;;
11414;SDS011;5763;42.714;23.244;2023-03-03T09:55:09;10.73;;;9.15;;
11414;SDS011;5763;42.714;23.244;2023-03-03T09:57:54;11.38;;;9.20;;
11414;SDS011;5763;42.714;23.244;2023-03-03T10:00:40;11.98;;;8.93;;
11414;SDS011;5763;42.714;23.244;2023-03-03T10:03:24;10.63;;;8.32;;
11414;SDS011;5763;42.714;23.244;2023-03-03T10:06:13;10.40;;;7.97;;
11414;SDS011;5763;42.714;23.244;2023-03-03T10:08:51;10.88;;;9.13;;
11414;SDS011;5763;42.714;23.244;2023-03-03T10:11:36;11.00;;;9.10;;
11414;SDS011;5763;42.714;23.244;2023-03-03T10:17:11;11.85;;;10.15;;
11414;SDS011;5763;42.714;23.244;2023-03-03T10:20:00;10.77;;;9.63;;
11414;SDS011;5763;42.714;23.244;2023-03-03T10:22:34;10.73;;;9.63;;
11414;SDS011;5763;42.714;23.244;2023-03-03T10:25:16;11.85;;;9.50;;
11414;SDS011;5763;42.714;23.244;2023-03-03T10:28:15;11.23;;;9.95;;
11414;SDS011;5763;42.714;23.244;2023-03-03T10:30:56;10.15;;;8.60;;
11414;SDS011;5763;42.714;23.244;2023-03-03T10:33:34;10.73;;;9.30;;
11414;SDS011;5763;42.714;23.244;2023-03-03T10:36:19;11.90;;;10.00;;
11414;SDS011;5763;42.714;23.244;2023-03-03T10:38:57;12.68;;;10.18;;
11414;SDS011;5763;42.714;23.244;2023-03-03T10:41:39;12.63;;;10.32;;
11414;SDS011;5763;42.714;23.244;2023-03-03T10:44:27;11.75;;;9.23;;
11414;SDS011;5763;42.714;23.244;2023-03-03T10:47:07;12.88;;;9.60;;
11414;SDS011;5763;42.714;23.244;2023-03-03T10:49:59;11.15;;;9.45;;
11414;SDS011;5763;42.714;23.244;2023-03-03T10:52:37;9.98;;;8.93;;
11414;SDS011;5763;42.714;23.244;2023-03-03T10:58:10;11.60;;;9.70;;
11414;SDS011;5763;42.714;23.244;2023-03-03T11:00:58;12.00;;;10.32;;
11414;SDS011;5763;42.714;23.244;2023-03-03T11:03:45;13.35;;;10.65;;
11414;SDS011;5763;42.714;23.244;2023-03-03T11:06:23;12.55;;;10.15;;
11414;SDS011;5763;42.714;23.244;2023-03-03T11:09:02;11.43;;;9.88;;
11414;SDS011;5763;42.714;23.244;2023-03-03T11:11:34;11.55;;;10.32;;
11414;SDS011;5763;42.714;23.244;2023-03-03T11:14:10;11.80;;;9.93;;
11414;SDS011;5763;42.714;23.244;2023-03-03T11:16:44;12.73;;;10.68;;
11414;SDS011;5763;42.714;23.244;2023-03-03T11:19:25;11.65;;;10.45;;
11414;SDS011;5763;42.714;23.244;2023-03-03T11:22:03;13.50;;;10.77;;
11414;SDS011;5763;42.714;23.244;2023-03-03T11:24:45;11.25;;;10.00;;
11414;SDS011;5763;42.714;23.244;2023-03-03T11:27:23;12.45;;;10.77;;
11414;SDS011;5763;42.714;23.244;2023-03-03T11:30:17;12.43;;;10.65;;
11414;SDS011;5763;42.714;23.244;2023-03-03T11:33:00;10.75;;;9.40;;
11414;SDS011;5763;42.714;23.244;2023-03-03T11:35:32;11.98;;;10.10;;
11414;SDS011;5763;42.714;23.244;2023-03-03T11:38:13;11.95;;;9.75;;
11414;SDS011;5763;42.714;23.244;2023-03-03T11:40:50;11.15;;;9.80;;
11414;SDS011;5763;42.714;23.244;2023-03-03T11:43:21;10.63;;;9.43;;
11414;SDS011;5763;42.714;23.244;2023-03-03T11:45:55;10.70;;;8.88;;
11414;SDS011;5763;42.714;23.244;2023-03-03T11:48:27;11.25;;;9.55;;
11414;SDS011;5763;42.714;23.244;2023-03-03T11:51:02;11.23;;;9.18;;
11414;SDS011;5763;42.714;23.244;2023-03-03T11:53:37;12.90;;;8.93;;
11414;SDS011;5763;42.714;23.244;2023-03-03T11:56:16;10.52;;;8.82;;
11414;SDS011;5763;42.714;23.244;2023-03-03T11:58:49;9.60;;;8.07;;
11414;SDS011;5763;42.714;23.244;2023-03-03T12:01:25;9.10;;;8.20;;
11414;SDS011;5763;42.714;23.244;2023-03-03T12:03:59;8.30;;;7.35;;
11414;SDS011;5763;42.714;23.244;2023-03-03T12:06:31;9.20;;;7.60;;
11414;SDS011;5763;42.714;23.244;2023-03-03T12:09:14;9.63;;;7.32;;
11414;SDS011;5763;42.714;23.244;2023-03-03T12:11:50;9.40;;;8.30;;
11414;SDS011;5763;42.714;23.244;2023-03-03T12:14:28;9.05;;;7.93;;
11414;SDS011;5763;42.714;23.244;2023-03-03T12:17:05;8.10;;;7.10;;
11414;SDS011;5763;42.714;23.244;2023-03-03T12:19:44;9.75;;;7.43;;
11414;SDS011;5763;42.714;23.244;2023-03-03T12:22:21;7.68;;;6.30;;
11414;SDS011;5763;42.714;23.244;2023-03-03T12:25:07;7.05;;;5.47;;
11414;SDS011;5763;42.714;23.244;2023-03-03T12:27:49;5.88;;;5.13;;
11414;SDS011;5763;42.714;23.244;2023-03-03T12:30:26;5.93;;;4.80;;
11414;SDS011;5763;42.714;23.244;2023-03-03T12:33:06;4.97;;;3.55;;
11414;SDS011;5763;42.714;23.244;2023-03-03T12:35:46;4.05;;;3.58;;
11414;SDS011;5763;42.714;23.244;2023-03-03T12:38:21;3.20;;;2.90;;
11414;SDS011;5763;42.714;23.244;2023-03-03T12:40:59;3.67;;;3.38;;
11414;SDS011;5763;42.714;23.244;2023-03-03T12:43:36;4.55;;;3.88;;
11414;SDS011;5763;42.714;23.244;2023-03-03T12:46:14;5.00;;;4.50;;
11414;SDS011;5763;42.714;23.244;2023-03-03T12:48:48;4.32;;;3.72;;
11414;SDS011;5763;42.714;23.244;2023-03-03T12:51:17;4.45;;;4.05;;
11414;SDS011;5763;42.714;23.244;2023-03-03T12:54:04;3.42;;;3.13;;
11414;SDS011;5763;42.714;23.244;2023-03-03T12:56:43;3.40;;;3.10;;
11414;SDS011;5763;42.714;23.244;2023-03-03T12:59:15;3.13;;;2.78;;
11414;SDS011;5763;42.714;23.244;2023-03-03T13:04:46;3.00;;;2.65;;
11414;SDS011;5763;42.714;23.244;2023-03-03T13:07:19;3.05;;;2.85;;
11414;SDS011;5763;42.714;23.244;2023-03-03T13:09:58;4.75;;;3.28;;
11414;SDS011;5763;42.714;23.244;2023-03-03T13:12:33;4.80;;;4.03;;
11414;SDS011;5763;42.714;23.244;2023-03-03T13:15:09;4.28;;;3.88;;
11414;SDS011;5763;42.714;23.244;2023-03-03T13:17:42;4.07;;;3.67;;
11414;SDS011;5763;42.714;23.244;2023-03-03T13:20:24;4.20;;;3.78;;
11414;SDS011;5763;42.714;23.244;2023-03-03T13:23:03;5.43;;;4.30;;
11414;SDS011;5763;42.714;23.244;2023-03-03T13:25:34;5.07;;;4.07;;
11414;SDS011;5763;42.714;23.244;2023-03-03T13:28:16;5.40;;;4.50;;
11414;SDS011;5763;42.714;23.244;2023-03-03T13:30:49;4.40;;;3.92;;
11414;SDS011;5763;42.714;23.244;2023-03-03T13:33:21;5.95;;;4.65;;
11414;SDS011;5763;42.714;23.244;2023-03-03T13:35:53;4.13;;;3.10;;
11414;SDS011;5763;42.714;23.244;2023-03-03T13:38:23;3.80;;;3.40;;
11414;SDS011;5763;42.714;23.244;2023-03-03T13:40:53;3.42;;;2.90;;
11414;SDS011;5763;42.714;23.244;2023-03-03T13:43:29;3.00;;;2.53;;
11414;SDS011;5763;42.714;23.244;2023-03-03T13:46:02;2.53;;;2.10;;
11414;SDS011;5763;42.714;23.244;2023-03-03T13:48:39;1.63;;;1.50;;
11414;SDS011;5763;42.714;23.244;2023-03-03T13:51:15;2.10;;;1.73;;
11414;SDS011;5763;42.714;23.244;2023-03-03T13:53:57;2.90;;;2.55;;
11414;SDS011;5763;42.714;23.244;2023-03-03T13:56:35;3.65;;;3.35;;
11414;SDS011;5763;42.714;23.244;2023-03-03T13:59:14;3.05;;;2.75;;
11414;SDS011;5763;42.714;23.244;2023-03-03T14:01:55;3.17;;;2.85;;
11414;SDS011;5763;42.714;23.244;2023-03-03T14:04:35;3.85;;;2.92;;
11414;SDS011;5763;42.714;23.244;2023-03-03T14:07:13;2.90;;;2.55;;
11414;SDS011;5763;42.714;23.244;2023-03-03T14:09:50;2.90;;;2.28;;
11414;SDS011;5763;42.714;23.244;2023-03-03T14:12:26;2.45;;;2.22;;
11414;SDS011;5763;42.714;23.244;2023-03-03T14:15:06;2.40;;;2.20;;
11414;SDS011;5763;42.714;23.244;2023-03-03T14:17:50;2.83;;;2.50;;
11414;SDS011;5763;42.714;23.244;2023-03-03T14:20:38;2.65;;;2.45;;
11414;SDS011;5763;42.714;23.244;2023-03-03T14:23:12;2.90;;;2.70;;
11414;SDS011;5763;42.714;23.244;2023-03-03T14:25:50;2.90;;;2.70;;
11414;SDS011;5763;42.714;23.244;2023-03-03T14:28:23;3.60;;;2.92;;
11414;SDS011;5763;42.714;23.244;2023-03-03T14:30:53;4.03;;;3.13;;
11414;SDS011;5763;42.714;23.244;2023-03-03T14:33:22;3.30;;;3.00;;
11414;SDS011;5763;42.714;23.244;2023-03-03T14:36:04;3.67;;;3.38;;
11414;SDS011;5763;42.714;23.244;2023-03-03T14:38:36;4.20;;;3.80;;
11414;SDS011;5763;42.714;23.244;2023-03-03T14:41:22;3.95;;;3.22;;
11414;SDS011;5763;42.714;23.244;2023-03-03T14:44:03;3.42;;;3.13;;
11414;SDS011;5763;42.714;23.244;2023-03-03T14:47:01;4.25;;;3.53;;
11414;SDS011;5763;42.714;23.244;2023-03-03T14:49:45;4.13;;;3.72;;
11414;SDS011;5763;42.714;23.244;2023-03-03T14:52:18;4.00;;;3.60;;
11414;SDS011;5763;42.714;23.244;2023-03-03T14:54:49;5.38;;;3.55;;
11414;SDS011;5763;42.714;23.244;2023-03-03T14:57:17;4.20;;;3.80;;
11414;SDS011;5763;42.714;23.244;2023-03-03T14:59:55;4.05;;;3.45;;
11414;SDS011;5763;42.714;23.244;2023-03-03T15:02:32;4.53;;;3.65;;
11414;SDS011;5763;42.714;23.244;2023-03-03T15:05:12;3.78;;;3.20;;
11414;SDS011;5763;42.714;23.244;2023-03-03T15:07:43;4.60;;;3.95;;
11414;SDS011;5763;42.714;23.244;2023-03-03T15:10:11;4.63;;;3.58;;
11414;SDS011;5763;42.714;23.244;2023-03-03T15:12:39;4.45;;;3.75;;
11414;SDS011;5763;42.714;23.244;2023-03-03T15:15:12;4.82;;;4.32;;
11414;SDS011;5763;42.714;23.244;2023-03-03T15:17:52;4.40;;;4.00;;
11414;SDS011;5763;42.714;23.244;2023-03-03T15:20:23;5.47;;;4.35;;
11414;SDS011;5763;42.714;23.244;2023-03-03T15:23:00;4.72;;;4.25;;
11414;SDS011;5763;42.714;23.244;2023-03-03T15:25:38;4.57;;;3.90;;
11414;SDS011;5763;42.714;23.244;2023-03-03T15:28:24;5.70;;;3.85;;
11414;SDS011;5763;42.714;23.244;2023-03-03T15:31:07;3.72;;;3.42;;
11414;SDS011;5763;42.714;23.244;2023-03-03T15:33:43;3.78;;;3.35;;